createdAt,value
2019-05-22T00:02:27.781Z,13.76
2019-05-22T00:05:12.028Z,13.73
2019-05-22T00:07:45.561Z,13.67
2019-05-22T00:10:20.459Z,13.64
2019-05-22T00:12:57.486Z,13.69
2019-05-22T00:15:30.760Z,13.66
2019-05-22T00:18:06.653Z,13.68
2019-05-22T00:20:39.560Z,13.68
2019-05-22T00:23:13.184Z,13.71
2019-05-22T00:25:47.780Z,13.71
2019-05-22T00:28:19.798Z,13.74
2019-05-22T00:30:52.457Z,13.77
2019-05-22T00:33:25.381Z,13.77
2019-05-22T00:35:59.640Z,13.74
2019-05-22T00:38:34.242Z,13.68
2019-05-22T00:41:10.555Z,13.68
2019-05-22T00:43:45.114Z,13.68
2019-05-22T00:46:21.733Z,13.64
2019-05-22T00:48:54.615Z,13.64
2019-05-22T00:51:30.526Z,13.68
2019-05-22T00:54:38.398Z,13.75
2019-05-22T00:57:29.876Z,13.75
2019-05-22T01:00:17.609Z,13.71
2019-05-22T01:02:51.199Z,13.72
2019-05-22T01:05:24.747Z,13.76
2019-05-22T01:07:57.125Z,13.73
2019-05-22T01:10:30.753Z,13.74
2019-05-22T01:13:04.658Z,13.70
2019-05-22T01:15:38.023Z,13.74
2019-05-22T01:18:14.851Z,13.73
2019-05-22T01:20:49.223Z,13.69
2019-05-22T01:23:24.166Z,13.74
2019-05-22T01:25:56.147Z,13.77
2019-05-22T01:28:28.526Z,13.76
2019-05-22T01:31:15.511Z,13.77
2019-05-22T01:33:51.707Z,13.74
2019-05-22T01:36:26.712Z,13.72
2019-05-22T01:39:08.046Z,13.71
2019-05-22T01:41:41.494Z,13.75
2019-05-22T01:44:14.381Z,13.74
2019-05-22T01:46:46.303Z,13.69
2019-05-22T01:49:18.992Z,13.69
2019-05-22T01:51:50.714Z,13.69
2019-05-22T01:54:22.318Z,13.68
2019-05-22T01:56:52.997Z,13.69
2019-05-22T01:59:26.345Z,13.68
2019-05-22T02:01:59.309Z,13.67
2019-05-22T02:04:31.263Z,13.68
2019-05-22T02:07:04.050Z,13.66
2019-05-22T02:09:38.908Z,13.64
2019-05-22T02:12:20.838Z,13.67
2019-05-22T02:14:56.390Z,13.65
2019-05-22T02:17:33.645Z,13.70
2019-05-22T02:20:08.800Z,13.67
2019-05-22T02:22:42.581Z,13.63
2019-05-22T02:25:15.937Z,13.62
2019-05-22T02:27:49.271Z,13.60
2019-05-22T02:30:23.490Z,13.64
2019-05-22T02:32:56.644Z,13.59
2019-05-22T02:35:29.408Z,13.57
2019-05-22T02:38:04.048Z,13.59
2019-05-22T02:40:39.457Z,13.57
2019-05-22T02:43:11.394Z,13.55
2019-05-22T02:45:45.423Z,13.54
2019-05-22T02:48:19.176Z,13.52
2019-05-22T02:50:52.494Z,13.59
2019-05-22T02:53:41.239Z,13.60
2019-05-22T02:56:13.852Z,13.63
2019-05-22T02:58:47.335Z,13.59
2019-05-22T03:01:19.789Z,13.59
2019-05-22T03:03:51.833Z,13.62
2019-05-22T03:06:24.131Z,13.65
2019-05-22T03:09:30.536Z,13.68
2019-05-22T03:12:20.126Z,13.72
2019-05-22T03:14:54.760Z,13.76
2019-05-22T03:17:45.911Z,13.79
2019-05-22T03:20:24.394Z,13.81
2019-05-22T03:23:42.751Z,13.87
2019-05-22T03:26:15.051Z,13.95
2019-05-22T03:28:55.892Z,14.02
2019-05-22T03:31:30.160Z,14.10
2019-05-22T03:34:16.350Z,14.16
2019-05-22T03:36:58.336Z,14.23
2019-05-22T03:39:38.069Z,14.27
2019-05-22T03:42:13.181Z,14.32
2019-05-22T03:44:53.191Z,14.44
2019-05-22T03:47:29.090Z,14.50
2019-05-22T03:50:17.161Z,14.60
2019-05-22T03:52:57.184Z,14.63
2019-05-22T03:55:31.232Z,14.70
2019-05-22T03:58:09.158Z,14.81
2019-05-22T04:00:43.496Z,14.91
2019-05-22T04:03:21.281Z,15.01
2019-05-22T04:06:01.467Z,15.11
2019-05-22T04:08:54.763Z,15.18
2019-05-22T04:11:33.837Z,15.29
2019-05-22T04:14:08.641Z,15.35
2019-05-22T04:16:46.201Z,15.43
2019-05-22T04:19:48.586Z,15.53
2019-05-22T04:22:32.057Z,15.58
2019-05-22T04:25:06.273Z,15.67
2019-05-22T04:27:46.591Z,15.80
2019-05-22T04:30:25.069Z,15.92
2019-05-22T04:33:05.039Z,16.03
2019-05-22T04:35:43.613Z,16.11
2019-05-22T04:38:30.266Z,16.20
2019-05-22T04:41:06.433Z,16.26
2019-05-22T04:43:42.460Z,16.41
2019-05-22T04:46:23.874Z,16.53
2019-05-22T04:49:03.859Z,16.62
2019-05-22T04:51:39.227Z,16.70
2019-05-22T04:54:20.167Z,16.86
2019-05-22T04:56:58.525Z,16.99
2019-05-22T04:59:36.162Z,17.12
2019-05-22T05:02:26.431Z,17.26
2019-05-22T05:05:09.823Z,17.33
2019-05-22T05:08:02.540Z,17.48
2019-05-22T05:10:37.929Z,17.56
2019-05-22T05:13:13.063Z,17.67
2019-05-22T05:15:50.475Z,17.86
2019-05-22T05:18:33.412Z,17.95
2019-05-22T05:24:12.638Z,18.26
2019-05-22T05:26:50.669Z,18.47
2019-05-22T05:29:38.820Z,18.61
2019-05-22T05:32:20.643Z,18.78
2019-05-22T05:35:04.327Z,18.87
2019-05-22T05:37:52.025Z,19.02
2019-05-22T05:40:46.756Z,19.15
2019-05-22T05:43:24.639Z,19.30
2019-05-22T05:46:14.379Z,19.45
2019-05-22T05:48:47.839Z,19.55
2019-05-22T05:52:02.362Z,19.71
2019-05-22T05:54:32.915Z,19.68
2019-05-22T05:57:34.364Z,19.76
2019-05-22T06:00:13.499Z,19.88
2019-05-22T06:02:56.019Z,20.04
2019-05-22T06:05:31.712Z,20.10
2019-05-22T06:08:09.593Z,20.21
2019-05-22T06:11:24.547Z,20.24
2019-05-22T06:13:58.908Z,20.22
2019-05-22T06:17:17.021Z,20.24
2019-05-22T06:19:52.336Z,20.33
2019-05-22T06:25:34.401Z,20.57
2019-05-22T06:28:07.634Z,20.60
2019-05-22T06:30:46.501Z,20.74
2019-05-22T06:33:34.288Z,20.73
2019-05-22T06:36:10.120Z,20.88
2019-05-22T06:39:15.136Z,21.00
2019-05-22T06:41:49.234Z,21.05
2019-05-22T06:44:31.203Z,21.09
2019-05-22T06:47:10.732Z,21.18
2019-05-22T06:49:51.943Z,21.30
2019-05-22T06:53:09.954Z,21.36
2019-05-22T06:55:36.690Z,21.38
2019-05-22T06:58:08.435Z,21.35
2019-05-22T07:00:40.372Z,21.48
2019-05-22T07:03:12.653Z,21.54
2019-05-22T07:05:44.788Z,21.60
2019-05-22T07:08:16.854Z,21.73
2019-05-22T07:10:49.582Z,21.86
2019-05-22T07:13:22.712Z,21.96
2019-05-22T07:16:00.638Z,22.14
2019-05-22T07:18:32.187Z,22.14
2019-05-22T07:21:04.087Z,22.12
2019-05-22T07:23:36.661Z,22.34
2019-05-22T07:26:08.637Z,22.59
2019-05-22T07:28:47.222Z,22.63
2019-05-22T07:31:23.786Z,22.76
2019-05-22T07:33:56.267Z,22.80
2019-05-22T07:36:31.081Z,22.99
2019-05-22T07:39:04.759Z,23.18
2019-05-22T07:41:38.569Z,23.36
2019-05-22T07:44:13.149Z,23.45
2019-05-22T07:46:46.121Z,23.51
2019-05-22T07:49:17.836Z,23.60
2019-05-22T07:51:57.067Z,23.70
2019-05-22T07:54:29.302Z,23.90
2019-05-22T07:57:01.908Z,23.87
2019-05-22T07:59:33.805Z,23.72
2019-05-22T08:02:07.007Z,23.82
2019-05-22T08:04:49.035Z,23.81
2019-05-22T08:07:24.441Z,23.96
2019-05-22T08:09:57.450Z,23.90
2019-05-22T08:12:33.448Z,23.97
2019-05-22T08:15:06.784Z,24.15
2019-05-22T08:17:39.605Z,24.34
2019-05-22T08:20:18.321Z,24.20
2019-05-22T08:22:54.949Z,24.24
2019-05-22T08:25:40.317Z,24.73
2019-05-22T08:28:12.898Z,25.01
2019-05-22T08:30:50.259Z,24.87
2019-05-22T08:33:27.364Z,25.00
2019-05-22T08:36:03.502Z,25.03
2019-05-22T08:38:37.637Z,25.12
2019-05-22T08:41:12.906Z,25.32
2019-05-22T08:44:14.722Z,25.45
2019-05-22T08:46:27.832Z,25.52
2019-05-22T08:48:59.611Z,25.47
2019-05-22T08:51:31.338Z,25.65
2019-05-22T08:54:05.908Z,25.82
2019-05-22T08:56:41.418Z,26.07
2019-05-22T08:59:19.637Z,25.91
2019-05-22T09:01:48.559Z,26.22
2019-05-22T09:04:22.950Z,26.42
2019-05-22T09:06:54.603Z,26.42
2019-05-22T09:09:27.438Z,26.59
2019-05-22T09:12:00.041Z,26.54
2019-05-22T09:14:44.310Z,26.65
2019-05-22T09:17:20.021Z,26.83
2019-05-22T09:19:52.988Z,27.03
2019-05-22T09:22:39.535Z,27.12
2019-05-22T09:25:00.126Z,27.28
2019-05-22T09:27:31.920Z,27.07
2019-05-22T09:30:08.126Z,27.46
2019-05-22T09:32:40.155Z,27.42
2019-05-22T09:35:12.322Z,27.75
2019-05-22T09:37:44.445Z,27.97
2019-05-22T09:40:16.326Z,27.84
2019-05-22T09:42:47.867Z,27.65
2019-05-22T09:45:20.430Z,27.55
2019-05-22T09:47:56.351Z,27.63
2019-05-22T09:50:34.451Z,27.64
2019-05-22T09:53:09.445Z,28.07
2019-05-22T09:55:53.887Z,28.28
2019-05-22T09:58:39.761Z,28.33
2019-05-22T10:01:22.081Z,28.54
2019-05-22T10:04:13.246Z,28.65
2019-05-22T10:11:15.877Z,28.54
2019-05-22T10:13:53.700Z,28.62
2019-05-22T10:16:27.164Z,28.45
2019-05-22T10:19:00.990Z,28.55
2019-05-22T10:21:34.409Z,28.86
2019-05-22T10:24:07.547Z,28.86
2019-05-22T10:26:41.934Z,28.89
2019-05-22T10:29:14.006Z,28.77
2019-05-22T10:31:48.632Z,28.92
2019-05-22T10:34:21.120Z,28.65
2019-05-22T10:44:04.046Z,29.16
2019-05-22T10:46:36.182Z,29.23
2019-05-22T10:49:09.383Z,28.96
2019-05-22T11:03:59.718Z,29.06
2019-05-22T11:06:23.929Z,29.35
2019-05-22T11:08:59.002Z,29.12
2019-05-22T11:11:31.245Z,29.37
2019-05-22T11:14:15.179Z,29.78
2019-05-22T11:16:55.339Z,29.82
2019-05-22T11:19:27.431Z,29.92
2019-05-22T11:22:04.158Z,29.48
2019-05-22T11:24:58.745Z,29.45
2019-05-22T11:27:31.261Z,29.46
2019-05-22T11:30:03.438Z,29.72
2019-05-22T11:32:40.988Z,30.01
2019-05-22T11:35:13.267Z,30.01
2019-05-22T11:37:45.498Z,29.99
2019-05-22T11:40:22.277Z,30.19
2019-05-22T11:42:55.200Z,30.06
2019-05-22T11:45:27.367Z,30.02
2019-05-22T11:47:59.010Z,29.99
2019-05-22T11:50:33.547Z,30.07
2019-05-22T11:53:05.588Z,30.07
2019-05-22T11:55:45.252Z,30.09
2019-05-22T11:58:15.132Z,30.28
2019-05-22T12:00:50.265Z,30.42
2019-05-22T12:03:23.646Z,29.97
2019-05-22T12:05:56.703Z,30.02
2019-05-22T12:08:28.659Z,29.94
2019-05-22T12:11:01.169Z,29.67
2019-05-22T12:13:39.784Z,29.76
2019-05-22T12:16:20.851Z,29.90
2019-05-22T12:18:58.836Z,30.15
2019-05-22T12:21:33.972Z,30.30
2019-05-22T12:24:28.607Z,30.13
2019-05-22T12:27:01.493Z,29.96
2019-05-22T12:29:46.095Z,29.52
2019-05-22T12:32:19.423Z,29.47
2019-05-22T12:35:03.863Z,29.47
2019-05-22T12:38:01.494Z,29.06
2019-05-22T12:40:40.972Z,29.05
2019-05-22T12:43:13.401Z,28.75
2019-05-22T12:45:45.466Z,28.83
2019-05-22T12:48:26.810Z,28.78
2019-05-22T12:51:02.658Z,28.60
2019-05-22T12:53:36.888Z,28.10
2019-05-22T12:56:09.272Z,27.56
2019-05-22T12:58:48.443Z,27.12
2019-05-22T13:01:18.783Z,26.69
2019-05-22T13:03:51.577Z,26.29
2019-05-22T13:06:32.395Z,25.99
2019-05-22T13:09:15.635Z,25.88
2019-05-22T13:11:47.554Z,25.85
2019-05-22T13:14:24.568Z,25.99
2019-05-22T13:17:03.679Z,25.62
2019-05-22T13:19:38.232Z,25.51
2019-05-22T13:22:17.456Z,25.38
2019-05-22T13:24:50.195Z,25.18
2019-05-22T13:27:25.419Z,25.22
2019-05-22T13:30:03.358Z,25.04
2019-05-22T13:32:49.617Z,24.96
2019-05-22T13:35:27.728Z,24.66
2019-05-22T13:38:02.798Z,24.33
2019-05-22T13:40:36.086Z,24.55
2019-05-22T13:43:11.070Z,24.56
2019-05-22T13:45:44.269Z,24.49
2019-05-22T13:48:19.976Z,24.30
2019-05-22T13:50:53.860Z,23.97
2019-05-22T13:53:35.927Z,23.61
2019-05-22T13:56:12.570Z,23.59
2019-05-22T13:58:44.464Z,23.52
2019-05-22T14:01:23.714Z,23.59
2019-05-22T14:03:59.105Z,23.51
2019-05-22T14:06:32.147Z,23.39
2019-05-22T14:09:06.632Z,23.44
2019-05-22T14:11:42.833Z,23.36
2019-05-22T14:14:20.073Z,23.48
2019-05-22T14:16:56.089Z,23.32
2019-05-22T14:19:29.471Z,23.34
2019-05-22T14:22:03.345Z,23.21
2019-05-22T14:24:34.779Z,23.34
2019-05-22T14:27:10.334Z,23.22
2019-05-22T14:29:46.363Z,23.36
2019-05-22T14:32:30.053Z,23.24
2019-05-22T14:34:57.145Z,23.24
2019-05-22T14:38:00.260Z,23.15
2019-05-22T14:43:30.583Z,23.09
2019-05-22T14:44:07.261Z,23.07
2019-05-22T14:46:39.116Z,23.08
2019-05-22T14:49:11.009Z,22.84
2019-05-22T14:51:43.178Z,22.95
2019-05-22T14:54:15.118Z,22.91
2019-05-22T14:56:47.628Z,22.99
2019-05-22T14:59:21.111Z,22.87
2019-05-22T15:01:53.922Z,22.91
2019-05-22T15:04:26.306Z,23.09
2019-05-22T15:06:58.306Z,22.82
2019-05-22T15:09:30.022Z,22.77
2019-05-22T15:12:02.020Z,22.88
2019-05-22T15:14:33.938Z,22.80
2019-05-22T15:17:30.732Z,22.92
2019-05-22T15:19:45.841Z,22.85
2019-05-22T15:22:19.625Z,22.87
2019-05-22T15:24:53.736Z,22.80
2019-05-22T15:27:26.750Z,22.50
2019-05-22T15:29:58.502Z,22.48
2019-05-22T15:32:30.272Z,22.37
2019-05-22T15:35:02.909Z,22.37
2019-05-22T15:37:35.001Z,22.37
2019-05-22T15:40:08.558Z,22.10
2019-05-22T15:42:42.103Z,22.10
2019-05-22T15:45:23.710Z,22.08
2019-05-22T15:47:58.691Z,22.01
2019-05-22T15:50:36.497Z,22.00
2019-05-22T15:53:27.829Z,21.97
2019-05-22T15:56:01.052Z,21.92
2019-05-22T15:58:32.895Z,21.91
2019-05-22T16:01:05.631Z,21.88
2019-05-22T16:03:37.533Z,21.73
2019-05-22T16:06:11.317Z,21.89
2019-05-22T16:08:52.178Z,21.83
2019-05-22T16:11:27.859Z,21.64
2019-05-22T16:14:01.676Z,21.55
2019-05-22T16:16:37.608Z,21.59
2019-05-22T16:19:18.178Z,21.52
2019-05-22T16:21:54.361Z,21.52
2019-05-22T16:24:26.299Z,21.53
2019-05-22T16:27:26.779Z,21.63
2019-05-22T16:29:58.510Z,21.57
2019-05-22T16:32:30.283Z,21.68
2019-05-22T16:35:02.260Z,21.58
2019-05-22T16:37:34.327Z,21.50
2019-05-22T16:40:06.816Z,21.24
2019-05-22T16:45:11.075Z,21.21
2019-05-22T16:47:45.141Z,21.09
2019-05-22T16:50:18.250Z,20.86
2019-05-22T16:52:51.486Z,20.80
2019-05-22T16:55:24.777Z,20.72
2019-05-22T16:57:56.606Z,20.54
2019-05-22T17:00:29.960Z,20.40
2019-05-22T17:04:14.421Z,20.48
2019-05-22T17:06:49.214Z,20.51
2019-05-22T17:09:27.104Z,20.52
2019-05-22T17:12:04.752Z,20.43
2019-05-22T17:14:38.323Z,20.27
2019-05-22T17:17:12.699Z,20.20
2019-05-22T17:19:46.128Z,20.07
2019-05-22T17:22:18.970Z,20.09
2019-05-22T17:24:51.058Z,20.14
2019-05-22T17:27:24.508Z,20.13
2019-05-22T17:29:56.442Z,20.10
2019-05-22T17:32:28.208Z,20.06
2019-05-22T17:35:00.461Z,20.10
2019-05-22T17:37:35.189Z,20.13
2019-05-22T17:40:08.985Z,20.14
2019-05-22T17:42:41.745Z,20.14
2019-05-22T17:45:15.738Z,20.13
2019-05-22T17:47:47.398Z,20.06
2019-05-22T17:50:26.819Z,20.06
2019-05-22T17:52:58.098Z,20.07
2019-05-22T17:55:32.496Z,20.00
2019-05-22T17:58:04.446Z,20.01
2019-05-22T18:00:42.416Z,19.98
2019-05-22T18:03:14.783Z,19.97
2019-05-22T18:05:47.420Z,19.98
2019-05-22T18:08:19.330Z,19.92
2019-05-22T18:10:52.275Z,19.87
2019-05-22T18:13:24.058Z,19.85
2019-05-22T18:15:56.157Z,19.81
2019-05-22T18:18:28.163Z,19.81
2019-05-22T18:21:09.882Z,19.79
2019-05-22T18:23:41.813Z,19.76
2019-05-22T18:26:16.239Z,19.73
2019-05-22T18:28:48.008Z,19.70
2019-05-22T18:31:21.178Z,19.64
2019-05-22T18:33:55.841Z,19.55
2019-05-22T18:36:30.350Z,19.34
2019-05-22T18:39:01.987Z,19.23
2019-05-22T18:41:34.970Z,19.18
2019-05-22T18:44:07.006Z,19.16
2019-05-22T18:46:39.116Z,19.19
2019-05-22T18:49:11.013Z,19.26
2019-05-22T18:51:47.343Z,19.24
2019-05-22T18:54:32.188Z,19.23
2019-05-22T18:57:09.213Z,19.20
2019-05-22T19:00:02.992Z,19.19
2019-05-22T19:02:37.668Z,19.16
2019-05-22T19:05:19.651Z,18.97
2019-05-22T19:07:55.789Z,18.94
2019-05-22T19:10:38.045Z,18.82
2019-05-22T19:13:22.081Z,18.77
2019-05-22T19:16:00.074Z,18.69
2019-05-22T19:18:37.610Z,18.71
2019-05-22T19:21:23.517Z,18.70
2019-05-22T19:24:00.662Z,18.65
2019-05-22T19:26:38.203Z,18.62
2019-05-22T19:29:42.736Z,18.57
2019-05-22T19:32:20.543Z,18.43
2019-05-22T19:35:02.184Z,18.38
2019-05-22T19:37:37.580Z,18.31
2019-05-22T19:40:32.261Z,18.24
2019-05-22T19:43:11.155Z,18.27
2019-05-22T19:45:55.854Z,18.18
2019-05-22T19:48:50.896Z,18.17
2019-05-22T19:51:24.434Z,18.09
2019-05-22T19:54:00.846Z,18.11
2019-05-22T19:56:36.893Z,18.10
2019-05-22T19:59:16.503Z,18.12
2019-05-22T20:02:01.002Z,18.01
2019-05-22T20:04:35.351Z,18.01
2019-05-22T20:07:11.323Z,17.98
2019-05-22T20:09:54.267Z,18.02
2019-05-22T20:12:24.975Z,17.92
2019-05-22T20:14:58.686Z,17.83
2019-05-22T20:17:35.676Z,17.76
2019-05-22T20:20:18.041Z,17.70
2019-05-22T20:23:01.944Z,17.74
2019-05-22T20:25:39.497Z,17.76
2019-05-22T20:28:19.040Z,17.80
2019-05-22T20:30:56.144Z,17.75
2019-05-22T20:33:38.487Z,17.66
2019-05-22T20:36:24.233Z,17.69
2019-05-22T20:38:59.612Z,17.71
2019-05-22T20:41:35.594Z,17.72
2019-05-22T20:44:22.233Z,17.61
2019-05-22T20:46:59.310Z,17.61
2019-05-22T20:49:37.854Z,17.60
2019-05-22T20:52:14.653Z,17.54
2019-05-22T20:55:04.365Z,17.61
2019-05-22T20:57:47.965Z,17.55
2019-05-22T21:00:23.759Z,17.47
2019-05-22T21:03:06.384Z,17.45
2019-05-22T21:05:46.149Z,17.44
2019-05-22T21:08:42.054Z,17.43
2019-05-22T21:11:21.266Z,17.38
2019-05-22T21:13:54.883Z,17.39
2019-05-22T21:16:34.668Z,17.39
2019-05-22T21:19:11.690Z,17.37
2019-05-22T21:21:51.880Z,17.41
2019-05-22T21:24:29.020Z,17.43
2019-05-22T21:27:05.607Z,17.38
2019-05-22T21:29:40.455Z,17.37
2019-05-22T21:32:19.327Z,17.33
2019-05-22T21:34:58.004Z,17.38
2019-05-22T21:37:32.474Z,17.40
2019-05-22T21:40:12.854Z,17.39
2019-05-22T21:42:54.013Z,17.33
2019-05-22T21:45:26.988Z,17.31
2019-05-22T21:47:58.927Z,17.18
2019-05-22T21:50:31.417Z,17.17
2019-05-22T21:53:14.383Z,17.15
2019-05-22T21:56:04.780Z,17.08
2019-05-22T21:58:46.264Z,17.10
2019-05-22T22:01:34.383Z,17.14
2019-05-22T22:04:39.321Z,17.08
2019-05-22T22:07:16.207Z,17.05
2019-05-22T22:09:54.574Z,17.06
2019-05-22T22:12:29.505Z,17.01
2019-05-22T22:15:10.507Z,17.00
2019-05-22T22:17:58.717Z,16.92
2019-05-22T22:20:40.777Z,16.90
2019-05-22T22:23:13.585Z,16.92
2019-05-22T22:25:53.608Z,16.95
2019-05-22T22:28:34.165Z,16.90
2019-05-22T22:31:11.340Z,16.91
2019-05-22T22:33:48.805Z,16.92
2019-05-22T22:36:25.006Z,16.89
2019-05-22T22:39:07.230Z,16.94
2019-05-22T22:41:41.414Z,16.89
2019-05-22T22:44:19.695Z,16.86
2019-05-22T22:47:02.126Z,16.85
2019-05-22T22:49:44.380Z,16.84
2019-05-22T22:52:25.959Z,16.80
2019-05-22T22:55:01.977Z,16.74
2019-05-22T22:57:40.594Z,16.72
2019-05-22T23:00:19.558Z,16.70
2019-05-22T23:02:56.426Z,16.73
2019-05-22T23:05:38.865Z,16.62
2019-05-22T23:08:19.632Z,16.60
2019-05-22T23:10:58.513Z,16.60
2019-05-22T23:13:34.093Z,16.63
2019-05-22T23:16:08.725Z,16.51
2019-05-22T23:19:23.652Z,16.50
2019-05-22T23:21:57.169Z,16.50
2019-05-22T23:24:34.874Z,16.46
2019-05-22T23:27:17.584Z,16.51
2019-05-22T23:29:51.179Z,16.45
2019-05-22T23:32:31.508Z,16.46
2019-05-22T23:35:05.403Z,16.55
2019-05-22T23:37:44.859Z,16.51
2019-05-22T23:40:29.993Z,16.53
2019-05-22T23:43:07.894Z,16.58
2019-05-22T23:45:45.556Z,16.55
2019-05-22T23:48:35.099Z,16.53
2019-05-22T23:51:18.999Z,16.52
2019-05-22T23:53:52.345Z,16.54
2019-05-22T23:56:41.888Z,16.54
2019-05-22T23:59:14.973Z,16.50
